Airport View

Enter AWOS ICAO identifier for current METAR.

ex. KFNL

KFNL 262156Z AUTO 18006KT 10SM CLR 04/M14 A3018 RMK AO2 SLP252 T00391139

26 Feb 2020 22:51

Frequency: 135.075

Phone: 970-669-9187

Other Area AWOS: KGXY - KLMO - KEIK - KBDU

TAF KBJC 261734Z 2618/2718 VRB03KT P6SM FEW130 FEW200 FM261900 29010KT P6SM SCT130 FM262300 26018G26KT P6SM SCT130 FM270700 26005KT P6SM SCT130 FM271600 02010KT P6SM FEW100